Fair Seas — V7PD2 — position and weather

sailwx.info

Track history (hours):
 
Tides and Currents Weather Stations Pressure Air Temp Water Temp Dewpoint Dewpoint Depression Visibility Wind Speed Wind Dir Waves Ship Positions

Fair Seas

Last reported at 2015-Jul-05 04:33 UTC. Time now 2015-Jul-06 04:56 UTC.
Position N 55°12' E 011°15'.

Length 250 m; draft 8 m.

Type: Ship (hazmat cat D). MMSI: 538003211.

Date/timePositionNaut miles runAvg speedWind from/ knotsBaromVisibWave heightAir tempDewpointWater temp
2015-Jul-05 04:33N 55°12' E 011°15'8 8.0
2015-Jul-05 03:33N 55°18' E 011°05'3 2.9
2015-Jul-05 02:32N 55°15' E 011°03'0 0.0
2015-Jul-05 01:29N 55°15' E 011°03'0 0.0
2015-Jul-05 00:32N 55°15' E 011°03'0 0.0
2015-Jul-04 22:20N 55°15' E 011°03'0 0.1
2015-Jul-04 21:32N 55°15' E 011°03'0 0.1
2015-Jul-04 20:33N 55°15' E 011°02'1211.1
2015-Jul-04 19:30N 55°27' E 010°57'1313.7
2015-Jul-04 18:34N 55°38' E 010°46'1414.1
2015-Jul-04 17:34N 55°52' E 010°52'1414.3
2015-Jul-04 16:34N 56°04' E 011°06'1514.9
2015-Jul-04 15:33N 56°16' E 011°22'1515.5
2015-Jul-04 14:33N 56°30' E 011°35'1514.8
2015-Jul-04 13:33N 56°42' E 011°49'1514.6
2015-Jul-04 12:33N 56°57' E 011°45'1514.7
2015-Jul-04 11:33N 57°10' E 011°33'1514.9
2015-Jul-04 10:33N 57°24' E 011°24'1514.6
2015-Jul-04 09:34N 57°35' E 011°07'1313.2
2015-Jul-04 08:33N 57°43' E 010°48'8 7.7
2015-Jul-04 07:33N 57°48' E 010°36'1313.0
2015-Jul-04 06:33N 57°48' E 010°11'1615.5
2015-Jul-04 05:33N 57°46' E 009°42'1616.1
2015-Jul-04 04:33N 57°45' E 009°12'1616.0
2015-Jul-04 03:33N 57°44' E 008°43'1615.8
2015-Jul-04 02:33N 57°42' E 008°13'1815.4
2015-Jul-04 01:25N 57°41' E 007°40'4315.1
2015-Jul-03 22:33N 57°43' E 006°19'1615.5
2015-Jul-03 21:30N 57°50' E 005°52'33714.7
2015-Jul-02 22:33N 59°09' W 004°34'1615.8
2015-Jul-02 21:34N 59°01' W 005°01'20013.9
2015-Jul-02 07:12N 55°53' W 007°07'914.0
2015-Jul-02 06:33N 55°45' W 006°58'1414.1
2015-Jul-02 05:33N 55°34' W 006°44'1514.5
2015-Jul-02 04:33N 55°27' W 006°21'1716.6
2015-Jul-02 03:33N 55°19' W 005°56'1918.8
2015-Jul-02 02:33N 55°03' W 005°38'1818.2
2015-Jul-02 01:33N 54°47' W 005°22'1716.8
2015-Jul-02 00:33N 54°32' W 005°11'1616.3
2015-Jul-01 23:33N 54°15' W 005°12'1615.8
2015-Jul-01 22:33N 53°60' W 005°13'4016.9
2015-Jul-01 20:11N 53°20' W 005°22'5417.8
2015-Jul-01 17:10N 52°26' W 005°33'1016.1
2015-Jul-01 16:33N 52°17' W 005°36'1514.9
2015-Jul-01 15:33N 52°02' W 005°41'1413.8
2015-Jul-01 14:32N 51°49' W 005°46'1111.7
2015-Jul-01 13:33N 51°37' W 005°44'  
2015-Jun-26 04:16N 49°54' W 003°31'811.3
2015-Jun-26 03:33N 49°56' W 003°18'2310.9
2015-Jun-26 01:28N 50°01' W 002°44'1010.8
2015-Jun-26 00:33N 50°03' W 002°29'1111.1
2015-Jun-25 23:33N 50°05' W 002°12'1211.8
2015-Jun-25 22:33N 50°05' W 001°54'1312.9
2015-Jun-25 21:33N 50°01' W 001°35'1313.3
2015-Jun-25 20:33N 49°54' W 001°17'1413.7
2015-Jun-25 19:31N 49°49' W 000°56'1212.8
2015-Jun-25 18:33N 49°44' W 000°39'1211.8
2015-Jun-25 17:33N 49°38' W 000°23'5 5.1
2015-Jun-25 16:33N 49°35' W 000°17'0 0.1
2015-Jun-25 15:33N 49°35' W 000°16'0 0.0
2015-Jun-25 14:33N 49°35' W 000°16'0 0.0
2015-Jun-25 13:33N 49°35' W 000°16'0 0.1
2015-Jun-25 12:33N 49°35' W 000°16'0 0.1
2015-Jun-25 11:33N 49°35' W 000°17'0 0.1
2015-Jun-25 10:33N 49°35' W 000°17'0 0.0
2015-Jun-25 09:33N 49°35' W 000°17'0 0.0
2015-Jun-25 08:33N 49°35' W 000°17'0 0.0
2015-Jun-25 07:33N 49°35' W 000°17'0 0.0
2015-Jun-25 06:33N 49°35' W 000°17'0 0.2
2015-Jun-25 05:33N 49°35' W 000°16'  
Track history (hours):
 
Tides and Currents Weather Stations Pressure Air Temp Water Temp Dewpoint Dewpoint Depression Visibility Wind Speed Wind Dir Waves Ship Positions

Fair Seas

Last reported at 2015-Jul-05 04:33 UTC. Time now 2015-Jul-06 04:56 UTC.
Position N 55°12' E 011°15'.

Length 250 m; draft 8 m.

Type: Ship (hazmat cat D). MMSI: 538003211.

Date/timePositionNaut miles runAvg speedWind from/ knotsBaromVisibWave heightAir tempDewpointWater temp
2015-Jul-05 04:33N 55°12' E 011°15'8 8.0
2015-Jul-05 03:33N 55°18' E 011°05'3 2.9
2015-Jul-05 02:32N 55°15' E 011°03'0 0.0
2015-Jul-05 01:29N 55°15' E 011°03'0 0.0
2015-Jul-05 00:32N 55°15' E 011°03'0 0.0
2015-Jul-04 22:20N 55°15' E 011°03'0 0.1
2015-Jul-04 21:32N 55°15' E 011°03'0 0.1
2015-Jul-04 20:33N 55°15' E 011°02'1211.1
2015-Jul-04 19:30N 55°27' E 010°57'1313.7
2015-Jul-04 18:34N 55°38' E 010°46'1414.1
2015-Jul-04 17:34N 55°52' E 010°52'1414.3
2015-Jul-04 16:34N 56°04' E 011°06'1514.9
2015-Jul-04 15:33N 56°16' E 011°22'1515.5
2015-Jul-04 14:33N 56°30' E 011°35'1514.8
2015-Jul-04 13:33N 56°42' E 011°49'1514.6
2015-Jul-04 12:33N 56°57' E 011°45'1514.7
2015-Jul-04 11:33N 57°10' E 011°33'1514.9
2015-Jul-04 10:33N 57°24' E 011°24'1514.6
2015-Jul-04 09:34N 57°35' E 011°07'1313.2
2015-Jul-04 08:33N 57°43' E 010°48'8 7.7
2015-Jul-04 07:33N 57°48' E 010°36'1313.0
2015-Jul-04 06:33N 57°48' E 010°11'1615.5
2015-Jul-04 05:33N 57°46' E 009°42'1616.1
2015-Jul-04 04:33N 57°45' E 009°12'1616.0
2015-Jul-04 03:33N 57°44' E 008°43'1615.8
2015-Jul-04 02:33N 57°42' E 008°13'1815.4
2015-Jul-04 01:25N 57°41' E 007°40'4315.1
2015-Jul-03 22:33N 57°43' E 006°19'1615.5
2015-Jul-03 21:30N 57°50' E 005°52'33714.7
2015-Jul-02 22:33N 59°09' W 004°34'1615.8
2015-Jul-02 21:34N 59°01' W 005°01'20013.9
2015-Jul-02 07:12N 55°53' W 007°07'914.0
2015-Jul-02 06:33N 55°45' W 006°58'1414.1
2015-Jul-02 05:33N 55°34' W 006°44'1514.5
2015-Jul-02 04:33N 55°27' W 006°21'1716.6
2015-Jul-02 03:33N 55°19' W 005°56'1918.8
2015-Jul-02 02:33N 55°03' W 005°38'1818.2
2015-Jul-02 01:33N 54°47' W 005°22'1716.8
2015-Jul-02 00:33N 54°32' W 005°11'1616.3
2015-Jul-01 23:33N 54°15' W 005°12'1615.8
2015-Jul-01 22:33N 53°60' W 005°13'4016.9
2015-Jul-01 20:11N 53°20' W 005°22'5417.8
2015-Jul-01 17:10N 52°26' W 005°33'1016.1
2015-Jul-01 16:33N 52°17' W 005°36'1514.9
2015-Jul-01 15:33N 52°02' W 005°41'1413.8
2015-Jul-01 14:32N 51°49' W 005°46'1111.7
2015-Jul-01 13:33N 51°37' W 005°44'  
2015-Jun-26 04:16N 49°54' W 003°31'811.3
2015-Jun-26 03:33N 49°56' W 003°18'2310.9
2015-Jun-26 01:28N 50°01' W 002°44'1010.8
2015-Jun-26 00:33N 50°03' W 002°29'1111.1
2015-Jun-25 23:33N 50°05' W 002°12'1211.8
2015-Jun-25 22:33N 50°05' W 001°54'1312.9
2015-Jun-25 21:33N 50°01' W 001°35'1313.3
2015-Jun-25 20:33N 49°54' W 001°17'1413.7
2015-Jun-25 19:31N 49°49' W 000°56'1212.8
2015-Jun-25 18:33N 49°44' W 000°39'1211.8
2015-Jun-25 17:33N 49°38' W 000°23'5 5.1
2015-Jun-25 16:33N 49°35' W 000°17'0 0.1
2015-Jun-25 15:33N 49°35' W 000°16'0 0.0
2015-Jun-25 14:33N 49°35' W 000°16'0 0.0
2015-Jun-25 13:33N 49°35' W 000°16'0 0.1
2015-Jun-25 12:33N 49°35' W 000°16'0 0.1
2015-Jun-25 11:33N 49°35' W 000°17'0 0.1
2015-Jun-25 10:33N 49°35' W 000°17'0 0.0
2015-Jun-25 09:33N 49°35' W 000°17'0 0.0
2015-Jun-25 08:33N 49°35' W 000°17'0 0.0
2015-Jun-25 07:33N 49°35' W 000°17'0 0.0
2015-Jun-25 06:33N 49°35' W 000°17'0 0.2
2015-Jun-25 05:33N 49°35' W 000°16'  

Dump ship's entire track history